sensor_id;sensor_type;location;lat;lon;timestamp;P1;durP1;ratioP1;P2;durP2;ratioP2
23060;SDS011;11698;47.690;9.132;2023-06-10T00:01:41;3.50;;;2.70;;
23060;SDS011;11698;47.690;9.132;2023-06-10T00:04:08;3.40;;;2.97;;
23060;SDS011;11698;47.690;9.132;2023-06-10T00:06:34;3.33;;;2.43;;
23060;SDS011;11698;47.690;9.132;2023-06-10T00:09:04;3.25;;;2.92;;
23060;SDS011;11698;47.690;9.132;2023-06-10T00:11:31;4.25;;;3.00;;
23060;SDS011;11698;47.690;9.132;2023-06-10T00:13:57;3.60;;;2.85;;
23060;SDS011;11698;47.690;9.132;2023-06-10T00:16:23;4.17;;;2.90;;
23060;SDS011;11698;47.690;9.132;2023-06-10T00:18:50;2.60;;;2.40;;
23060;SDS011;11698;47.690;9.132;2023-06-10T00:21:16;3.27;;;2.70;;
23060;SDS011;11698;47.690;9.132;2023-06-10T00:23:44;2.85;;;2.35;;
23060;SDS011;11698;47.690;9.132;2023-06-10T00:26:10;4.00;;;3.10;;
23060;SDS011;11698;47.690;9.132;2023-06-10T00:28:36;3.05;;;2.60;;
23060;SDS011;11698;47.690;9.132;2023-06-10T00:31:02;4.47;;;3.03;;
23060;SDS011;11698;47.690;9.132;2023-06-10T00:33:29;4.35;;;3.15;;
23060;SDS011;11698;47.690;9.132;2023-06-10T00:35:55;3.40;;;2.58;;
23060;SDS011;11698;47.690;9.132;2023-06-10T00:38:21;3.50;;;2.97;;
23060;SDS011;11698;47.690;9.132;2023-06-10T00:40:47;3.25;;;2.85;;
23060;SDS011;11698;47.690;9.132;2023-06-10T00:43:13;2.53;;;2.33;;
23060;SDS011;11698;47.690;9.132;2023-06-10T00:45:39;2.80;;;2.60;;
23060;SDS011;11698;47.690;9.132;2023-06-10T00:48:05;3.20;;;2.90;;
23060;SDS011;11698;47.690;9.132;2023-06-10T00:50:32;3.47;;;3.15;;
23060;SDS011;11698;47.690;9.132;2023-06-10T00:52:59;4.40;;;3.20;;
23060;SDS011;11698;47.690;9.132;2023-06-10T00:55:25;3.17;;;2.88;;
23060;SDS011;11698;47.690;9.132;2023-06-10T00:57:52;3.60;;;3.08;;
23060;SDS011;11698;47.690;9.132;2023-06-10T01:00:19;3.03;;;2.78;;
23060;SDS011;11698;47.690;9.132;2023-06-10T01:02:45;4.38;;;3.00;;
23060;SDS011;11698;47.690;9.132;2023-06-10T01:05:11;3.53;;;3.10;;
23060;SDS011;11698;47.690;9.132;2023-06-10T01:10:11;3.77;;;3.20;;
23060;SDS011;11698;47.690;9.132;2023-06-10T01:13:00;3.27;;;2.93;;
23060;SDS011;11698;47.690;9.132;2023-06-10T01:15:31;3.97;;;3.22;;
23060;SDS011;11698;47.690;9.132;2023-06-10T01:17:58;4.15;;;2.97;;
23060;SDS011;11698;47.690;9.132;2023-06-10T01:20:28;3.73;;;3.17;;
23060;SDS011;11698;47.690;9.132;2023-06-10T01:22:55;4.38;;;3.45;;
23060;SDS011;11698;47.690;9.132;2023-06-10T01:25:22;5.03;;;3.58;;
23060;SDS011;11698;47.690;9.132;2023-06-10T01:28:14;4.93;;;3.45;;
23060;SDS011;11698;47.690;9.132;2023-06-10T01:31:02;4.57;;;3.53;;
23060;SDS011;11698;47.690;9.132;2023-06-10T01:33:28;4.00;;;3.05;;
23060;SDS011;11698;47.690;9.132;2023-06-10T01:35:56;3.40;;;2.97;;
23060;SDS011;11698;47.690;9.132;2023-06-10T01:38:22;3.27;;;2.97;;
23060;SDS011;11698;47.690;9.132;2023-06-10T01:40:50;4.55;;;3.20;;
23060;SDS011;11698;47.690;9.132;2023-06-10T01:43:17;5.93;;;3.23;;
23060;SDS011;11698;47.690;9.132;2023-06-10T01:45:43;3.85;;;3.00;;
23060;SDS011;11698;47.690;9.132;2023-06-10T01:48:09;5.30;;;3.35;;
23060;SDS011;11698;47.690;9.132;2023-06-10T01:50:35;3.70;;;3.25;;
23060;SDS011;11698;47.690;9.132;2023-06-10T01:53:01;3.53;;;3.22;;
23060;SDS011;11698;47.690;9.132;2023-06-10T01:55:27;4.18;;;3.33;;
23060;SDS011;11698;47.690;9.132;2023-06-10T01:57:53;3.40;;;3.10;;
23060;SDS011;11698;47.690;9.132;2023-06-10T02:00:19;4.73;;;3.40;;
23060;SDS011;11698;47.690;9.132;2023-06-10T02:02:45;5.07;;;3.50;;
23060;SDS011;11698;47.690;9.132;2023-06-10T02:05:11;3.90;;;3.50;;
23060;SDS011;11698;47.690;9.132;2023-06-10T02:07:37;4.70;;;3.50;;
23060;SDS011;11698;47.690;9.132;2023-06-10T02:10:04;4.32;;;3.50;;
23060;SDS011;11698;47.690;9.132;2023-06-10T02:12:30;5.27;;;3.50;;
23060;SDS011;11698;47.690;9.132;2023-06-10T02:14:56;4.28;;;3.38;;
23060;SDS011;11698;47.690;9.132;2023-06-10T02:17:22;5.70;;;3.63;;
23060;SDS011;11698;47.690;9.132;2023-06-10T02:19:48;3.75;;;3.35;;
23060;SDS011;11698;47.690;9.132;2023-06-10T02:22:21;6.38;;;3.65;;
23060;SDS011;11698;47.690;9.132;2023-06-10T02:24:47;3.97;;;3.33;;
23060;SDS011;11698;47.690;9.132;2023-06-10T02:27:14;5.32;;;3.70;;
23060;SDS011;11698;47.690;9.132;2023-06-10T02:29:40;5.65;;;4.00;;
23060;SDS011;11698;47.690;9.132;2023-06-10T02:32:06;6.57;;;3.85;;
23060;SDS011;11698;47.690;9.132;2023-06-10T02:34:32;4.50;;;3.53;;
23060;SDS011;11698;47.690;9.132;2023-06-10T02:36:58;5.18;;;3.78;;
23060;SDS011;11698;47.690;9.132;2023-06-10T02:39:24;5.03;;;4.05;;
23060;SDS011;11698;47.690;9.132;2023-06-10T02:41:50;4.30;;;3.87;;
23060;SDS011;11698;47.690;9.132;2023-06-10T02:44:17;4.80;;;3.60;;
23060;SDS011;11698;47.690;9.132;2023-06-10T02:46:44;4.03;;;3.40;;
23060;SDS011;11698;47.690;9.132;2023-06-10T02:49:11;4.93;;;3.90;;
23060;SDS011;11698;47.690;9.132;2023-06-10T02:51:37;5.28;;;4.00;;
23060;SDS011;11698;47.690;9.132;2023-06-10T02:54:03;4.65;;;3.70;;
23060;SDS011;11698;47.690;9.132;2023-06-10T02:56:29;4.85;;;3.60;;
23060;SDS011;11698;47.690;9.132;2023-06-10T02:58:56;4.85;;;3.50;;
23060;SDS011;11698;47.690;9.132;2023-06-10T03:01:23;4.27;;;3.73;;
23060;SDS011;11698;47.690;9.132;2023-06-10T03:03:49;5.70;;;3.60;;
23060;SDS011;11698;47.690;9.132;2023-06-10T03:06:15;4.83;;;3.73;;
23060;SDS011;11698;47.690;9.132;2023-06-10T03:08:41;4.03;;;3.60;;
23060;SDS011;11698;47.690;9.132;2023-06-10T03:11:07;4.93;;;3.78;;
23060;SDS011;11698;47.690;9.132;2023-06-10T03:13:34;4.00;;;3.45;;
23060;SDS011;11698;47.690;9.132;2023-06-10T03:15:59;5.22;;;3.67;;
23060;SDS011;11698;47.690;9.132;2023-06-10T03:18:28;5.18;;;3.45;;
23060;SDS011;11698;47.690;9.132;2023-06-10T03:20:54;4.75;;;3.60;;
23060;SDS011;11698;47.690;9.132;2023-06-10T03:23:20;6.03;;;3.80;;
23060;SDS011;11698;47.690;9.132;2023-06-10T03:25:46;4.82;;;3.47;;
23060;SDS011;11698;47.690;9.132;2023-06-10T03:28:12;4.40;;;3.90;;
23060;SDS011;11698;47.690;9.132;2023-06-10T03:30:38;6.15;;;4.05;;
23060;SDS011;11698;47.690;9.132;2023-06-10T03:33:04;5.53;;;4.43;;
23060;SDS011;11698;47.690;9.132;2023-06-10T03:35:30;6.30;;;4.43;;
23060;SDS011;11698;47.690;9.132;2023-06-10T03:37:57;5.00;;;4.15;;
23060;SDS011;11698;47.690;9.132;2023-06-10T03:40:23;5.60;;;4.35;;
23060;SDS011;11698;47.690;9.132;2023-06-10T03:42:49;4.82;;;3.75;;
23060;SDS011;11698;47.690;9.132;2023-06-10T03:45:15;4.90;;;4.40;;
23060;SDS011;11698;47.690;9.132;2023-06-10T03:47:42;5.30;;;4.22;;
23060;SDS011;11698;47.690;9.132;2023-06-10T03:50:09;5.38;;;4.32;;
23060;SDS011;11698;47.690;9.132;2023-06-10T03:52:35;6.20;;;4.28;;
23060;SDS011;11698;47.690;9.132;2023-06-10T03:55:02;5.67;;;4.33;;
23060;SDS011;11698;47.690;9.132;2023-06-10T03:57:28;5.30;;;4.55;;
23060;SDS011;11698;47.690;9.132;2023-06-10T03:59:54;5.28;;;3.97;;
23060;SDS011;11698;47.690;9.132;2023-06-10T04:02:21;5.20;;;4.20;;
23060;SDS011;11698;47.690;9.132;2023-06-10T04:04:47;5.55;;;4.30;;
23060;SDS011;11698;47.690;9.132;2023-06-10T04:07:13;5.78;;;4.18;;
23060;SDS011;11698;47.690;9.132;2023-06-10T04:09:39;5.40;;;4.50;;
23060;SDS011;11698;47.690;9.132;2023-06-10T04:12:06;5.57;;;4.25;;
23060;SDS011;11698;47.690;9.132;2023-06-10T04:14:34;5.25;;;4.38;;
23060;SDS011;11698;47.690;9.132;2023-06-10T04:17:02;4.78;;;4.25;;
23060;SDS011;11698;47.690;9.132;2023-06-10T04:19:31;6.10;;;4.40;;
23060;SDS011;11698;47.690;9.132;2023-06-10T04:21:57;4.57;;;4.03;;
23060;SDS011;11698;47.690;9.132;2023-06-10T04:24:23;5.28;;;4.07;;
23060;SDS011;11698;47.690;9.132;2023-06-10T04:26:49;5.15;;;4.18;;
23060;SDS011;11698;47.690;9.132;2023-06-10T04:29:15;5.13;;;4.03;;
23060;SDS011;11698;47.690;9.132;2023-06-10T04:31:41;5.80;;;4.50;;
23060;SDS011;11698;47.690;9.132;2023-06-10T04:34:07;4.53;;;4.10;;
23060;SDS011;11698;47.690;9.132;2023-06-10T04:36:33;5.63;;;4.00;;
23060;SDS011;11698;47.690;9.132;2023-06-10T04:38:59;5.18;;;3.90;;
23060;SDS011;11698;47.690;9.132;2023-06-10T04:41:26;4.68;;;4.03;;
23060;SDS011;11698;47.690;9.132;2023-06-10T04:43:52;5.15;;;3.80;;
23060;SDS011;11698;47.690;9.132;2023-06-10T04:46:18;5.13;;;4.10;;
23060;SDS011;11698;47.690;9.132;2023-06-10T04:48:44;7.00;;;4.03;;
23060;SDS011;11698;47.690;9.132;2023-06-10T04:51:12;5.35;;;4.32;;
23060;SDS011;11698;47.690;9.132;2023-06-10T04:53:38;5.05;;;4.07;;
23060;SDS011;11698;47.690;9.132;2023-06-10T04:56:05;4.75;;;4.07;;
23060;SDS011;11698;47.690;9.132;2023-06-10T04:58:32;5.28;;;4.10;;
23060;SDS011;11698;47.690;9.132;2023-06-10T05:00:58;5.53;;;4.50;;
23060;SDS011;11698;47.690;9.132;2023-06-10T05:03:24;5.53;;;4.30;;
23060;SDS011;11698;47.690;9.132;2023-06-10T05:05:54;6.15;;;4.38;;
23060;SDS011;11698;47.690;9.132;2023-06-10T05:08:20;5.93;;;4.30;;
23060;SDS011;11698;47.690;9.132;2023-06-10T05:10:46;5.65;;;4.40;;
23060;SDS011;11698;47.690;9.132;2023-06-10T05:13:11;6.43;;;4.40;;
23060;SDS011;11698;47.690;9.132;2023-06-10T05:15:37;5.43;;;4.07;;
23060;SDS011;11698;47.690;9.132;2023-06-10T05:18:03;5.20;;;4.43;;
23060;SDS011;11698;47.690;9.132;2023-06-10T05:20:30;6.80;;;4.67;;
23060;SDS011;11698;47.690;9.132;2023-06-10T05:22:56;6.05;;;4.45;;
23060;SDS011;11698;47.690;9.132;2023-06-10T05:25:22;5.47;;;4.53;;
23060;SDS011;11698;47.690;9.132;2023-06-10T05:27:48;5.90;;;4.93;;
23060;SDS011;11698;47.690;9.132;2023-06-10T05:30:14;6.00;;;4.85;;
23060;SDS011;11698;47.690;9.132;2023-06-10T05:32:40;6.32;;;4.55;;
23060;SDS011;11698;47.690;9.132;2023-06-10T05:35:06;6.38;;;4.80;;
23060;SDS011;11698;47.690;9.132;2023-06-10T05:37:33;5.43;;;4.43;;
23060;SDS011;11698;47.690;9.132;2023-06-10T05:40:01;5.95;;;4.57;;
23060;SDS011;11698;47.690;9.132;2023-06-10T05:42:29;5.75;;;4.25;;
23060;SDS011;11698;47.690;9.132;2023-06-10T05:44:55;5.63;;;4.53;;
23060;SDS011;11698;47.690;9.132;2023-06-10T05:47:21;7.20;;;4.63;;
23060;SDS011;11698;47.690;9.132;2023-06-10T05:49:47;4.93;;;4.38;;
23060;SDS011;11698;47.690;9.132;2023-06-10T05:52:14;5.82;;;4.68;;
23060;SDS011;11698;47.690;9.132;2023-06-10T05:54:40;5.13;;;4.50;;
23060;SDS011;11698;47.690;9.132;2023-06-10T05:57:06;5.80;;;4.60;;
23060;SDS011;11698;47.690;9.132;2023-06-10T05:59:32;5.90;;;4.55;;
23060;SDS011;11698;47.690;9.132;2023-06-10T06:01:58;6.13;;;5.10;;
23060;SDS011;11698;47.690;9.132;2023-06-10T06:04:24;5.65;;;4.68;;
23060;SDS011;11698;47.690;9.132;2023-06-10T06:06:50;5.68;;;4.55;;
23060;SDS011;11698;47.690;9.132;2023-06-10T06:09:16;6.18;;;4.80;;
23060;SDS011;11698;47.690;9.132;2023-06-10T06:11:42;5.60;;;4.45;;
23060;SDS011;11698;47.690;9.132;2023-06-10T06:14:08;6.53;;;4.50;;
23060;SDS011;11698;47.690;9.132;2023-06-10T06:16:35;5.40;;;4.60;;
23060;SDS011;11698;47.690;9.132;2023-06-10T06:19:01;5.60;;;4.53;;
23060;SDS011;11698;47.690;9.132;2023-06-10T06:21:27;5.95;;;4.70;;
23060;SDS011;11698;47.690;9.132;2023-06-10T06:23:53;7.38;;;5.00;;
23060;SDS011;11698;47.690;9.132;2023-06-10T06:26:19;5.10;;;4.60;;
23060;SDS011;11698;47.690;9.132;2023-06-10T06:28:45;4.78;;;4.18;;
23060;SDS011;11698;47.690;9.132;2023-06-10T06:31:11;6.07;;;4.65;;
23060;SDS011;11698;47.690;9.132;2023-06-10T06:33:37;5.40;;;4.50;;
23060;SDS011;11698;47.690;9.132;2023-06-10T06:36:03;5.85;;;4.18;;
23060;SDS011;11698;47.690;9.132;2023-06-10T06:38:29;6.10;;;4.60;;
23060;SDS011;11698;47.690;9.132;2023-06-10T06:40:55;6.73;;;5.00;;
23060;SDS011;11698;47.690;9.132;2023-06-10T06:43:21;6.72;;;4.85;;
23060;SDS011;11698;47.690;9.132;2023-06-10T06:45:47;7.00;;;4.95;;
23060;SDS011;11698;47.690;9.132;2023-06-10T06:48:13;5.90;;;4.70;;
23060;SDS011;11698;47.690;9.132;2023-06-10T06:50:39;5.50;;;4.57;;
23060;SDS011;11698;47.690;9.132;2023-06-10T06:53:06;6.10;;;4.75;;
23060;SDS011;11698;47.690;9.132;2023-06-10T06:55:32;6.28;;;5.20;;
23060;SDS011;11698;47.690;9.132;2023-06-10T06:57:58;5.60;;;4.87;;
23060;SDS011;11698;47.690;9.132;2023-06-10T07:00:27;5.82;;;4.53;;
23060;SDS011;11698;47.690;9.132;2023-06-10T07:02:53;6.05;;;4.97;;
23060;SDS011;11698;47.690;9.132;2023-06-10T07:05:20;6.00;;;4.60;;
23060;SDS011;11698;47.690;9.132;2023-06-10T07:07:46;5.88;;;4.88;;
23060;SDS011;11698;47.690;9.132;2023-06-10T07:10:12;6.47;;;4.93;;
23060;SDS011;11698;47.690;9.132;2023-06-10T07:12:39;5.70;;;5.10;;
23060;SDS011;11698;47.690;9.132;2023-06-10T07:15:05;5.78;;;4.85;;
23060;SDS011;11698;47.690;9.132;2023-06-10T07:17:32;7.32;;;5.10;;
23060;SDS011;11698;47.690;9.132;2023-06-10T07:19:59;5.95;;;5.03;;
23060;SDS011;11698;47.690;9.132;2023-06-10T07:22:25;8.45;;;5.45;;
23060;SDS011;11698;47.690;9.132;2023-06-10T07:24:51;6.45;;;4.82;;
23060;SDS011;11698;47.690;9.132;2023-06-10T07:27:19;5.15;;;4.45;;
23060;SDS011;11698;47.690;9.132;2023-06-10T07:29:45;5.45;;;4.80;;
23060;SDS011;11698;47.690;9.132;2023-06-10T07:32:11;5.60;;;4.68;;
23060;SDS011;11698;47.690;9.132;2023-06-10T07:34:37;6.03;;;5.17;;
23060;SDS011;11698;47.690;9.132;2023-06-10T07:37:03;5.82;;;5.07;;
23060;SDS011;11698;47.690;9.132;2023-06-10T07:39:30;7.13;;;4.75;;
23060;SDS011;11698;47.690;9.132;2023-06-10T07:41:56;7.87;;;5.13;;
23060;SDS011;11698;47.690;9.132;2023-06-10T07:44:22;6.85;;;5.15;;
23060;SDS011;11698;47.690;9.132;2023-06-10T07:46:48;6.57;;;5.30;;
23060;SDS011;11698;47.690;9.132;2023-06-10T07:49:15;6.75;;;5.30;;
23060;SDS011;11698;47.690;9.132;2023-06-10T07:51:41;6.43;;;5.45;;
23060;SDS011;11698;47.690;9.132;2023-06-10T07:54:07;6.40;;;5.70;;
23060;SDS011;11698;47.690;9.132;2023-06-10T07:56:33;6.47;;;5.55;;
23060;SDS011;11698;47.690;9.132;2023-06-10T07:58:59;7.38;;;5.10;;
23060;SDS011;11698;47.690;9.132;2023-06-10T08:01:25;5.95;;;4.88;;
23060;SDS011;11698;47.690;9.132;2023-06-10T08:03:51;7.45;;;4.85;;
23060;SDS011;11698;47.690;9.132;2023-06-10T08:06:17;5.83;;;4.87;;
23060;SDS011;11698;47.690;9.132;2023-06-10T08:08:43;5.70;;;4.90;;
23060;SDS011;11698;47.690;9.132;2023-06-10T08:11:10;5.85;;;5.25;;
23060;SDS011;11698;47.690;9.132;2023-06-10T08:13:36;6.03;;;4.65;;
23060;SDS011;11698;47.690;9.132;2023-06-10T08:16:03;4.97;;;4.40;;
23060;SDS011;11698;47.690;9.132;2023-06-10T08:18:29;6.45;;;4.70;;
23060;SDS011;11698;47.690;9.132;2023-06-10T08:20:55;4.60;;;4.20;;
23060;SDS011;11698;47.690;9.132;2023-06-10T08:23:21;6.95;;;4.70;;
23060;SDS011;11698;47.690;9.132;2023-06-10T08:25:47;6.47;;;4.88;;
23060;SDS011;11698;47.690;9.132;2023-06-10T08:28:13;6.53;;;5.13;;
23060;SDS011;11698;47.690;9.132;2023-06-10T08:30:39;6.82;;;4.93;;
23060;SDS011;11698;47.690;9.132;2023-06-10T08:33:05;5.63;;;4.70;;
23060;SDS011;11698;47.690;9.132;2023-06-10T08:35:31;6.25;;;4.82;;
23060;SDS011;11698;47.690;9.132;2023-06-10T08:37:57;5.33;;;4.80;;
23060;SDS011;11698;47.690;9.132;2023-06-10T08:40:23;5.85;;;4.70;;
23060;SDS011;11698;47.690;9.132;2023-06-10T08:42:52;5.80;;;5.20;;
23060;SDS011;11698;47.690;9.132;2023-06-10T08:45:19;5.95;;;4.88;;
23060;SDS011;11698;47.690;9.132;2023-06-10T08:47:49;5.33;;;4.20;;
23060;SDS011;11698;47.690;9.132;2023-06-10T08:50:17;5.55;;;4.95;;
23060;SDS011;11698;47.690;9.132;2023-06-10T08:52:43;5.60;;;4.50;;
23060;SDS011;11698;47.690;9.132;2023-06-10T08:55:10;5.55;;;4.70;;
23060;SDS011;11698;47.690;9.132;2023-06-10T08:57:37;5.22;;;4.20;;
23060;SDS011;11698;47.690;9.132;2023-06-10T09:00:03;5.60;;;4.43;;
23060;SDS011;11698;47.690;9.132;2023-06-10T09:02:31;6.25;;;4.60;;
23060;SDS011;11698;47.690;9.132;2023-06-10T09:04:57;6.43;;;5.00;;
23060;SDS011;11698;47.690;9.132;2023-06-10T09:07:23;8.45;;;5.22;;
23060;SDS011;11698;47.690;9.132;2023-06-10T09:09:50;6.05;;;4.82;;
23060;SDS011;11698;47.690;9.132;2023-06-10T09:12:18;5.73;;;4.73;;
23060;SDS011;11698;47.690;9.132;2023-06-10T09:14:44;5.65;;;5.05;;
23060;SDS011;11698;47.690;9.132;2023-06-10T09:17:10;10.27;;;7.55;;
23060;SDS011;11698;47.690;9.132;2023-06-10T09:19:37;5.90;;;5.30;;
23060;SDS011;11698;47.690;9.132;2023-06-10T09:22:04;7.47;;;5.50;;
23060;SDS011;11698;47.690;9.132;2023-06-10T09:24:30;5.82;;;4.80;;
23060;SDS011;11698;47.690;9.132;2023-06-10T09:27:03;5.72;;;4.95;;
23060;SDS011;11698;47.690;9.132;2023-06-10T09:29:29;5.80;;;4.83;;
23060;SDS011;11698;47.690;9.132;2023-06-10T09:31:55;6.05;;;4.68;;
23060;SDS011;11698;47.690;9.132;2023-06-10T09:34:24;4.43;;;4.03;;
23060;SDS011;11698;47.690;9.132;2023-06-10T09:36:50;5.88;;;4.95;;
23060;SDS011;11698;47.690;9.132;2023-06-10T09:39:17;6.20;;;4.88;;
23060;SDS011;11698;47.690;9.132;2023-06-10T09:41:44;7.25;;;5.13;;
23060;SDS011;11698;47.690;9.132;2023-06-10T09:44:11;5.65;;;4.63;;
23060;SDS011;11698;47.690;9.132;2023-06-10T09:46:38;5.65;;;4.32;;
23060;SDS011;11698;47.690;9.132;2023-06-10T09:49:04;5.45;;;4.47;;
23060;SDS011;11698;47.690;9.132;2023-06-10T09:51:30;5.00;;;4.50;;
23060;SDS011;11698;47.690;9.132;2023-06-10T09:53:56;5.07;;;4.57;;
23060;SDS011;11698;47.690;9.132;2023-06-10T09:56:32;4.78;;;4.38;;
23060;SDS011;11698;47.690;9.132;2023-06-10T09:58:58;5.32;;;4.72;;
23060;SDS011;11698;47.690;9.132;2023-06-10T10:01:24;4.93;;;4.47;;
23060;SDS011;11698;47.690;9.132;2023-06-10T10:03:50;4.72;;;4.22;;
23060;SDS011;11698;47.690;9.132;2023-06-10T10:06:17;5.15;;;4.65;;
23060;SDS011;11698;47.690;9.132;2023-06-10T10:08:47;4.80;;;4.23;;
23060;SDS011;11698;47.690;9.132;2023-06-10T10:11:18;5.20;;;4.70;;
23060;SDS011;11698;47.690;9.132;2023-06-10T10:13:48;4.47;;;4.07;;
23060;SDS011;11698;47.690;9.132;2023-06-10T10:16:15;4.67;;;4.13;;
23060;SDS011;11698;47.690;9.132;2023-06-10T10:18:43;4.50;;;4.03;;
23060;SDS011;11698;47.690;9.132;2023-06-10T10:21:12;5.25;;;3.92;;
23060;SDS011;11698;47.690;9.132;2023-06-10T10:23:48;4.53;;;4.13;;
23060;SDS011;11698;47.690;9.132;2023-06-10T10:26:18;5.43;;;4.38;;
23060;SDS011;11698;47.690;9.132;2023-06-10T10:31:39;5.30;;;4.30;;
23060;SDS011;11698;47.690;9.132;2023-06-10T10:34:06;4.40;;;3.70;;
23060;SDS011;11698;47.690;9.132;2023-06-10T10:36:33;4.97;;;4.20;;
23060;SDS011;11698;47.690;9.132;2023-06-10T10:38:59;4.25;;;3.83;;
23060;SDS011;11698;47.690;9.132;2023-06-10T10:41:27;4.20;;;3.70;;
23060;SDS011;11698;47.690;9.132;2023-06-10T10:43:53;4.90;;;4.13;;
23060;SDS011;11698;47.690;9.132;2023-06-10T10:46:19;4.40;;;4.00;;
23060;SDS011;11698;47.690;9.132;2023-06-10T10:48:45;4.70;;;4.10;;
23060;SDS011;11698;47.690;9.132;2023-06-10T10:51:11;4.65;;;4.13;;
23060;SDS011;11698;47.690;9.132;2023-06-10T10:53:38;5.45;;;3.88;;
23060;SDS011;11698;47.690;9.132;2023-06-10T10:56:05;5.32;;;4.20;;
23060;SDS011;11698;47.690;9.132;2023-06-10T10:58:32;4.00;;;3.70;;
23060;SDS011;11698;47.690;9.132;2023-06-10T11:00:58;4.60;;;3.70;;
23060;SDS011;11698;47.690;9.132;2023-06-10T11:03:27;4.72;;;3.80;;
23060;SDS011;11698;47.690;9.132;2023-06-10T11:05:54;4.37;;;3.53;;
23060;SDS011;11698;47.690;9.132;2023-06-10T11:08:45;4.00;;;3.60;;
23060;SDS011;11698;47.690;9.132;2023-06-10T11:11:18;4.03;;;3.70;;
23060;SDS011;11698;47.690;9.132;2023-06-10T11:13:59;4.17;;;3.77;;
23060;SDS011;11698;47.690;9.132;2023-06-10T11:16:31;4.28;;;3.33;;
23060;SDS011;11698;47.690;9.132;2023-06-10T11:19:03;3.55;;;3.20;;
23060;SDS011;11698;47.690;9.132;2023-06-10T11:21:31;4.43;;;3.55;;
23060;SDS011;11698;47.690;9.132;2023-06-10T11:23:57;4.03;;;3.47;;
23060;SDS011;11698;47.690;9.132;2023-06-10T11:33:53;4.03;;;3.25;;
23060;SDS011;11698;47.690;9.132;2023-06-10T11:36:19;4.47;;;3.50;;
23060;SDS011;11698;47.690;9.132;2023-06-10T11:38:45;4.05;;;3.45;;
23060;SDS011;11698;47.690;9.132;2023-06-10T11:41:11;3.20;;;2.90;;
23060;SDS011;11698;47.690;9.132;2023-06-10T11:43:44;3.65;;;3.35;;
23060;SDS011;11698;47.690;9.132;2023-06-10T11:46:11;3.75;;;3.15;;
23060;SDS011;11698;47.690;9.132;2023-06-10T11:48:37;3.92;;;3.35;;
23060;SDS011;11698;47.690;9.132;2023-06-10T11:51:09;3.30;;;3.00;;
23060;SDS011;11698;47.690;9.132;2023-06-10T11:53:35;3.97;;;2.92;;
23060;SDS011;11698;47.690;9.132;2023-06-10T11:56:01;3.25;;;2.95;;
23060;SDS011;11698;47.690;9.132;2023-06-10T11:58:27;3.30;;;3.00;;
23060;SDS011;11698;47.690;9.132;2023-06-10T12:00:54;3.40;;;3.10;;
23060;SDS011;11698;47.690;9.132;2023-06-10T12:03:23;3.30;;;3.00;;
23060;SDS011;11698;47.690;9.132;2023-06-10T12:05:56;3.38;;;3.08;;
23060;SDS011;11698;47.690;9.132;2023-06-10T12:08:23;3.00;;;2.80;;
23060;SDS011;11698;47.690;9.132;2023-06-10T12:10:49;3.03;;;2.67;;
23060;SDS011;11698;47.690;9.132;2023-06-10T12:13:15;4.00;;;2.78;;
23060;SDS011;11698;47.690;9.132;2023-06-10T12:15:43;3.17;;;2.88;;
23060;SDS011;11698;47.690;9.132;2023-06-10T12:18:15;3.08;;;2.78;;
23060;SDS011;11698;47.690;9.132;2023-06-10T12:20:42;3.28;;;2.60;;
23060;SDS011;11698;47.690;9.132;2023-06-10T12:23:08;3.88;;;3.10;;
23060;SDS011;11698;47.690;9.132;2023-06-10T12:25:35;2.73;;;2.53;;
23060;SDS011;11698;47.690;9.132;2023-06-10T12:28:03;2.80;;;2.60;;
23060;SDS011;11698;47.690;9.132;2023-06-10T12:30:30;2.90;;;2.50;;
23060;SDS011;11698;47.690;9.132;2023-06-10T12:32:57;3.30;;;2.63;;
23060;SDS011;11698;47.690;9.132;2023-06-10T12:35:26;2.70;;;2.50;;
23060;SDS011;11698;47.690;9.132;2023-06-10T12:40:33;2.70;;;2.50;;
23060;SDS011;11698;47.690;9.132;2023-06-10T12:43:01;2.47;;;2.28;;
23060;SDS011;11698;47.690;9.132;2023-06-10T12:45:30;3.77;;;2.70;;
23060;SDS011;11698;47.690;9.132;2023-06-10T12:48:07;2.97;;;2.55;;
23060;SDS011;11698;47.690;9.132;2023-06-10T12:50:36;2.72;;;2.53;;
23060;SDS011;11698;47.690;9.132;2023-06-10T12:53:03;2.72;;;2.15;;
23060;SDS011;11698;47.690;9.132;2023-06-10T12:55:29;2.30;;;2.10;;
23060;SDS011;11698;47.690;9.132;2023-06-10T12:57:55;2.53;;;2.27;;
23060;SDS011;11698;47.690;9.132;2023-06-10T13:00:22;2.40;;;2.20;;
23060;SDS011;11698;47.690;9.132;2023-06-10T13:02:50;2.50;;;2.28;;
23060;SDS011;11698;47.690;9.132;2023-06-10T13:05:17;2.45;;;2.25;;
23060;SDS011;11698;47.690;9.132;2023-06-10T13:07:43;2.93;;;2.00;;
23060;SDS011;11698;47.690;9.132;2023-06-10T13:10:09;2.30;;;2.10;;
23060;SDS011;11698;47.690;9.132;2023-06-10T13:12:35;2.30;;;2.10;;
23060;SDS011;11698;47.690;9.132;2023-06-10T13:15:02;2.67;;;2.40;;
23060;SDS011;11698;47.690;9.132;2023-06-10T13:17:28;2.60;;;2.20;;
23060;SDS011;11698;47.690;9.132;2023-06-10T13:19:54;2.58;;;2.38;;
23060;SDS011;11698;47.690;9.132;2023-06-10T13:22:20;2.97;;;2.40;;
23060;SDS011;11698;47.690;9.132;2023-06-10T13:24:48;2.28;;;2.08;;
23060;SDS011;11698;47.690;9.132;2023-06-10T13:27:14;2.60;;;2.38;;
23060;SDS011;11698;47.690;9.132;2023-06-10T13:29:40;2.63;;;2.42;;
23060;SDS011;11698;47.690;9.132;2023-06-10T13:32:07;2.58;;;2.38;;
23060;SDS011;11698;47.690;9.132;2023-06-10T13:34:33;2.75;;;2.55;;
23060;SDS011;11698;47.690;9.132;2023-06-10T13:36:59;3.60;;;2.25;;
23060;SDS011;11698;47.690;9.132;2023-06-10T13:39:25;2.10;;;1.90;;
23060;SDS011;11698;47.690;9.132;2023-06-10T13:41:52;3.10;;;2.50;;
23060;SDS011;11698;47.690;9.132;2023-06-10T13:44:18;2.35;;;2.15;;
23060;SDS011;11698;47.690;9.132;2023-06-10T13:46:44;2.10;;;2.00;;
23060;SDS011;11698;47.690;9.132;2023-06-10T13:49:10;2.13;;;2.03;;
23060;SDS011;11698;47.690;9.132;2023-06-10T13:51:36;2.20;;;2.00;;
23060;SDS011;11698;47.690;9.132;2023-06-10T13:54:02;2.88;;;2.20;;
23060;SDS011;11698;47.690;9.132;2023-06-10T13:56:28;2.22;;;2.00;;
23060;SDS011;11698;47.690;9.132;2023-06-10T13:58:55;2.27;;;2.07;;
23060;SDS011;11698;47.690;9.132;2023-06-10T14:01:21;2.30;;;2.10;;
23060;SDS011;11698;47.690;9.132;2023-06-10T14:03:47;2.43;;;1.87;;
23060;SDS011;11698;47.690;9.132;2023-06-10T14:06:13;2.90;;;2.20;;
23060;SDS011;11698;47.690;9.132;2023-06-10T14:08:43;2.35;;;2.00;;
23060;SDS011;11698;47.690;9.132;2023-06-10T14:11:09;2.17;;;2.00;;
23060;SDS011;11698;47.690;9.132;2023-06-10T14:13:35;2.03;;;1.83;;
23060;SDS011;11698;47.690;9.132;2023-06-10T14:16:03;1.80;;;1.70;;
23060;SDS011;11698;47.690;9.132;2023-06-10T14:18:30;1.85;;;1.70;;
23060;SDS011;11698;47.690;9.132;2023-06-10T14:20:56;2.27;;;2.00;;
23060;SDS011;11698;47.690;9.132;2023-06-10T14:23:22;2.60;;;1.77;;
23060;SDS011;11698;47.690;9.132;2023-06-10T14:25:49;2.70;;;1.90;;
23060;SDS011;11698;47.690;9.132;2023-06-10T14:28:15;1.80;;;1.70;;
23060;SDS011;11698;47.690;9.132;2023-06-10T14:30:41;2.00;;;1.75;;
23060;SDS011;11698;47.690;9.132;2023-06-10T14:33:07;1.60;;;1.50;;
23060;SDS011;11698;47.690;9.132;2023-06-10T14:35:33;1.83;;;1.70;;
23060;SDS011;11698;47.690;9.132;2023-06-10T14:37:59;2.35;;;1.88;;
23060;SDS011;11698;47.690;9.132;2023-06-10T14:40:25;1.88;;;1.75;;
23060;SDS011;11698;47.690;9.132;2023-06-10T14:42:53;2.63;;;1.63;;
23060;SDS011;11698;47.690;9.132;2023-06-10T14:45:19;2.00;;;1.80;;
23060;SDS011;11698;47.690;9.132;2023-06-10T14:47:45;2.08;;;1.60;;
23060;SDS011;11698;47.690;9.132;2023-06-10T14:50:12;1.88;;;1.70;;
23060;SDS011;11698;47.690;9.132;2023-06-10T14:52:38;2.63;;;1.70;;
23060;SDS011;11698;47.690;9.132;2023-06-10T14:55:05;2.30;;;1.60;;
23060;SDS011;11698;47.690;9.132;2023-06-10T14:57:31;1.85;;;1.63;;
23060;SDS011;11698;47.690;9.132;2023-06-10T14:59:57;2.20;;;1.60;;
23060;SDS011;11698;47.690;9.132;2023-06-10T15:02:23;1.58;;;1.45;;